Time;durP1;ratioP1;P1;durP2;ratioP2;P2;SDS_P1;SDS_P2;PMS_P1;PMS_P2;Temp;Humidity;BMP_temperature;BMP_pressure;BME280_temperature;BME280_humidity;BME280_pressure;Samples;Min_cycle;Max_cycle;Signal;HPM_P1;HPM_P2
2023/04/20 00:00:57;;;;;;;7.30;4.05;;;;;;;-0.32;100.00;97247.38;5029197;28;20033;-58
2023/04/20 00:03:23;;;;;;;5.95;3.80;;;;;;;-0.37;100.00;97255.06;5026669;28;20133;-58
2023/04/20 00:05:50;;;;;;;7.15;4.07;;;;;;;-0.53;100.00;97256.06;5024440;28;20107;-56
2023/04/20 00:08:16;;;;;;;7.57;3.75;;;;;;;-0.54;100.00;97244.63;5021310;28;20045;-58
2023/04/20 00:10:44;;;;;;;7.07;4.28;;;;;;;-0.54;100.00;97241.97;5028687;28;20803;-56
2023/04/20 00:13:10;;;;;;;8.50;3.80;;;;;;;-0.57;100.00;97237.00;5025189;28;20754;-58
2023/04/20 00:15:37;;;;;;;8.70;4.63;;;;;;;-0.67;100.00;97231.97;5017960;28;20120;-58
2023/04/20 00:18:04;;;;;;;7.18;4.82;;;;;;;-0.84;100.00;97226.00;5027837;28;20112;-57
2023/04/20 00:20:30;;;;;;;6.15;3.88;;;;;;;-0.79;100.00;97220.97;5017136;28;20045;-59
2023/04/20 00:22:57;;;;;;;6.38;3.97;;;;;;;-0.85;100.00;97226.19;5024708;28;20567;-57
2023/04/20 00:25:23;;;;;;;7.03;4.95;;;;;;;-0.67;100.00;97223.97;5025537;28;20053;-59
2023/04/20 00:27:50;;;;;;;7.38;4.25;;;;;;;-0.70;100.00;97213.72;5020617;28;20046;-57
2023/04/20 00:30:16;;;;;;;6.57;4.35;;;;;;;-0.79;100.00;97215.66;5026872;28;20069;-57
2023/04/20 00:32:43;;;;;;;9.88;4.50;;;;;;;-0.68;100.00;97211.69;5027684;28;20061;-57
2023/04/20 00:35:09;;;;;;;7.10;4.22;;;;;;;-0.58;100.00;97210.59;5027273;28;20044;-56
2023/04/20 00:37:36;;;;;;;8.50;4.80;;;;;;;-0.57;100.00;97213.06;5028161;28;20515;-58
2023/04/20 00:40:03;;;;;;;9.70;4.95;;;;;;;-0.48;100.00;97197.81;5015859;28;20049;-55
2023/04/20 00:42:29;;;;;;;8.00;4.68;;;;;;;-0.71;100.00;97197.94;5022714;28;20546;-58
2023/04/20 00:44:56;;;;;;;7.10;4.25;;;;;;;-0.76;100.00;97190.53;5019375;28;20461;-59
2023/04/20 00:47:22;;;;;;;6.97;4.53;;;;;;;-0.78;100.00;97189.88;5009888;28;20132;-57
2023/04/20 00:49:50;;;;;;;9.80;5.32;;;;;;;-0.74;100.00;97187.69;5018255;28;20042;-57
2023/04/20 00:52:17;;;;;;;11.02;5.20;;;;;;;-0.82;100.00;97184.09;5019297;28;20080;-58
2023/04/20 00:54:44;;;;;;;8.73;4.88;;;;;;;-0.85;100.00;97183.66;5016960;28;20037;-56
2023/04/20 00:57:12;;;;;;;8.45;5.05;;;;;;;-0.68;100.00;97179.78;5023740;28;20045;-57
2023/04/20 00:59:40;;;;;;;7.70;4.45;;;;;;;-0.59;100.00;97177.84;5025021;28;20638;-58
2023/04/20 01:02:06;;;;;;;9.40;4.35;;;;;;;-0.71;100.00;97172.19;5025917;28;20044;-56
2023/04/20 01:04:35;;;;;;;7.78;4.40;;;;;;;-0.64;100.00;97171.44;5020914;28;20077;-58
2023/04/20 01:07:02;;;;;;;8.27;5.22;;;;;;;-0.53;100.00;97166.47;5024988;28;20041;-58
2023/04/20 01:09:28;;;;;;;8.63;4.95;;;;;;;-0.62;100.00;97156.97;5026444;28;20421;-56
2023/04/20 01:11:55;;;;;;;7.82;3.90;;;;;;;-1.14;100.00;97151.53;5029068;28;20158;-57
2023/04/20 01:14:22;;;;;;;7.03;3.90;;;;;;;-1.28;100.00;97155.84;5025496;28;20052;-58
2023/04/20 01:16:50;;;;;;;7.20;4.80;;;;;;;-1.12;100.00;97143.41;5020797;28;20439;-59
2023/04/20 01:19:17;;;;;;;7.43;4.43;;;;;;;-1.16;100.00;97144.75;5021471;28;20053;-57
2023/04/20 01:21:44;;;;;;;7.65;4.28;;;;;;;-1.27;100.00;97133.59;5027314;28;20598;-57
2023/04/20 01:24:10;;;;;;;7.57;4.43;;;;;;;-1.22;100.00;97131.22;5021885;28;20573;-58
2023/04/20 01:26:37;;;;;;;7.20;4.28;;;;;;;-1.27;100.00;97124.78;5014602;28;20042;-59
2023/04/20 01:29:06;;;;;;;8.68;4.68;;;;;;;-1.37;100.00;97127.72;5017693;28;20159;-57
2023/04/20 01:31:32;;;;;;;7.13;4.50;;;;;;;-1.38;100.00;97116.28;5026511;28;20048;-58
2023/04/20 01:33:59;;;;;;;7.50;4.65;;;;;;;-1.49;100.00;97116.72;5021580;28;20049;-56
2023/04/20 01:36:25;;;;;;;8.43;5.22;;;;;;;-1.58;100.00;97111.47;5010682;28;20124;-57
2023/04/20 01:38:52;;;;;;;11.90;5.28;;;;;;;-1.58;100.00;97111.47;5023451;28;20063;-56
2023/04/20 01:41:19;;;;;;;12.77;5.93;;;;;;;-1.44;100.00;97101.88;5016602;28;20044;-56
2023/04/20 01:43:47;;;;;;;9.57;6.60;;;;;;;-1.33;100.00;97099.81;5025937;28;20049;-58
2023/04/20 01:46:13;;;;;;;11.25;5.93;;;;;;;-1.28;100.00;97101.88;5019603;28;20091;-55
2023/04/20 01:48:40;;;;;;;11.63;6.45;;;;;;;-1.25;100.00;97101.53;5016010;28;20041;-57
2023/04/20 01:51:08;;;;;;;9.68;5.57;;;;;;;-1.27;100.00;97098.22;5012092;28;20401;-58
2023/04/20 01:53:34;;;;;;;8.43;5.40;;;;;;;-1.34;100.00;97090.16;5013666;28;20053;-57
2023/04/20 01:56:01;;;;;;;10.32;4.53;;;;;;;-1.29;100.00;97086.97;5013162;28;20144;-55
2023/04/20 01:58:28;;;;;;;10.10;5.10;;;;;;;-1.10;100.00;97085.59;5019233;28;20053;-57
2023/04/20 02:00:54;;;;;;;9.75;5.30;;;;;;;-1.08;100.00;97088.88;5024296;28;20048;-58
2023/04/20 02:03:21;;;;;;;9.43;4.32;;;;;;;-1.31;100.00;97089.81;5025531;28;20455;-57
2023/04/20 02:05:48;;;;;;;6.97;4.40;;;;;;;-1.38;100.00;97079.09;5026117;28;20045;-54
2023/04/20 02:08:14;;;;;;;7.20;4.85;;;;;;;-1.44;100.00;97080.63;5024826;28;20044;-57
2023/04/20 02:10:41;;;;;;;8.43;4.80;;;;;;;-1.50;100.00;97076.06;5015593;28;20050;-57
2023/04/20 02:13:07;;;;;;;10.32;4.72;;;;;;;-1.50;100.00;97069.91;5017060;28;20086;-57
2023/04/20 02:15:34;;;;;;;9.98;5.20;;;;;;;-1.56;100.00;97076.78;5019061;28;20092;-58
2023/04/20 02:18:02;;;;;;;8.48;4.60;;;;;;;-1.60;100.00;97078.16;5024126;28;20640;-57
2023/04/20 02:20:29;;;;;;;12.07;5.20;;;;;;;-1.62;100.00;97072.22;5018441;28;20049;-55
2023/04/20 02:22:56;;;;;;;10.93;5.50;;;;;;;-1.47;100.00;97067.72;5014691;28;20038;-57
2023/04/20 02:25:22;;;;;;;9.38;4.80;;;;;;;-1.44;100.00;97069.19;5028629;28;20207;-58
2023/04/20 02:27:49;;;;;;;9.25;5.53;;;;;;;-1.48;100.00;97062.59;5018423;28;20125;-58
2023/04/20 02:30:16;;;;;;;8.98;5.35;;;;;;;-1.68;100.00;97062.28;5019294;28;20470;-58
2023/04/20 02:32:43;;;;;;;9.50;5.72;;;;;;;-1.60;100.00;97055.09;5013019;28;20049;-57
2023/04/20 02:35:09;;;;;;;10.48;6.50;;;;;;;-1.51;100.00;97055.81;5016911;28;20043;-58
2023/04/20 02:37:36;;;;;;;10.75;6.40;;;;;;;-1.53;100.00;97054.34;5026093;28;20095;-56
2023/04/20 02:40:03;;;;;;;9.93;6.70;;;;;;;-1.51;100.00;97052.34;5027480;28;20046;-56
2023/04/20 02:42:30;;;;;;;10.07;6.00;;;;;;;-1.51;100.00;97052.34;5014311;28;20042;-57
2023/04/20 02:44:58;;;;;;;11.57;7.13;;;;;;;-1.39;100.00;97044.75;5018772;28;20103;-56
2023/04/20 02:47:25;;;;;;;12.57;6.70;;;;;;;-1.35;100.00;97038.06;5029349;28;20631;-57
2023/04/20 02:49:52;;;;;;;11.05;6.57;;;;;;;-1.41;100.00;97036.94;5022661;28;20052;-56
2023/04/20 02:52:19;;;;;;;9.50;5.72;;;;;;;-1.44;100.00;97038.16;5028263;28;20669;-58
2023/04/20 02:54:46;;;;;;;12.02;5.97;;;;;;;-1.44;100.00;97039.97;5022347;28;20508;-57
2023/04/20 02:57:12;;;;;;;11.55;6.75;;;;;;;-1.33;100.00;97036.84;5022903;28;20136;-58
2023/04/20 02:59:39;;;;;;;10.27;5.93;;;;;;;-1.34;100.00;97037.88;5029480;28;20660;-57
2023/04/20 03:02:38;;;;;;;7.57;5.20;;;;;;;-1.37;100.00;97032.91;5012311;28;20048;-58
2023/04/20 03:05:06;;;;;;;9.50;5.60;;;;;;;-1.58;100.00;97029.16;5024222;28;20512;-57
2023/04/20 03:07:39;;;;;;;10.38;6.22;;;;;;;-1.75;100.00;97030.34;5017998;28;20096;-57
2023/04/20 03:10:08;;;;;;;8.43;5.78;;;;;;;-1.81;100.00;97031.09;5029185;28;20041;-56
2023/04/20 03:12:52;;;;;;;8.60;5.57;;;;;;;-1.79;100.00;97024.59;5027213;28;20042;-57
2023/04/20 03:15:32;;;;;;;9.20;6.00;;;;;;;-1.67;100.00;97027.59;5011904;28;20128;-58
2023/04/20 03:18:10;;;;;;;8.25;5.43;;;;;;;-1.85;100.00;97019.97;5021000;28;20427;-59
2023/04/20 03:20:37;;;;;;;8.52;5.57;;;;;;;-2.05;100.00;97012.56;5019474;28;20100;-55
2023/04/20 03:23:04;;;;;;;8.32;5.13;;;;;;;-2.07;100.00;97017.22;5017956;28;20626;-57
2023/04/20 03:25:32;;;;;;;8.95;5.63;;;;;;;-1.93;100.00;97012.09;5020657;28;20670;-56
2023/04/20 03:28:02;;;;;;;10.73;6.00;;;;;;;-2.03;100.00;97007.09;5024942;28;20038;-55
2023/04/20 03:30:29;;;;;;;9.80;5.68;;;;;;;-2.11;100.00;97006.13;5026036;28;20087;-57
2023/04/20 03:33:07;;;;;;;7.50;4.88;;;;;;;-2.09;100.00;97011.28;5025888;28;20048;-58
2023/04/20 03:35:33;;;;;;;9.73;6.07;;;;;;;-1.90;100.00;97017.91;5020444;28;20053;-57
2023/04/20 03:38:00;;;;;;;9.23;5.72;;;;;;;-1.92;100.00;97016.44;5027219;28;20033;-55
2023/04/20 03:40:27;;;;;;;10.45;6.35;;;;;;;-2.02;100.00;97019.34;5018677;28;20580;-57
2023/04/20 03:42:53;;;;;;;10.73;5.47;;;;;;;-2.08;100.00;97020.88;5026880;28;20412;-55
2023/04/20 03:45:20;;;;;;;9.23;5.35;;;;;;;-2.12;100.00;97024.88;5017640;28;20045;-58
2023/04/20 03:47:48;;;;;;;9.65;5.63;;;;;;;-1.88;100.00;97026.47;5020846;28;20045;-56
2023/04/20 03:50:15;;;;;;;8.48;5.45;;;;;;;-1.73;100.00;97021.19;5020930;28;20757;-56
2023/04/20 03:52:41;;;;;;;9.55;5.82;;;;;;;-1.68;100.00;97020.66;5019471;28;20054;-55
2023/04/20 03:55:09;;;;;;;10.65;6.13;;;;;;;-1.72;100.00;97019.38;5021863;28;20040;-55
2023/04/20 03:57:40;;;;;;;9.03;5.50;;;;;;;-1.76;100.00;97018.09;5026889;28;20041;-54
2023/04/20 04:00:09;;;;;;;10.68;7.10;;;;;;;-1.77;100.00;97014.59;5018995;28;20291;-55
2023/04/20 04:02:45;;;;;;;12.70;6.45;;;;;;;-1.73;100.00;97020.38;5023151;28;20099;-56
2023/04/20 04:05:17;;;;;;;10.15;6.10;;;;;;;-1.73;100.00;97009.75;5010788;28;20056;-58
2023/04/20 04:07:43;;;;;;;8.77;5.18;;;;;;;-1.96;100.00;97007.97;5026191;28;20045;-58
2023/04/20 04:10:12;;;;;;;8.35;5.43;;;;;;;-2.16;100.00;97013.81;5025458;28;20037;-57
2023/04/20 04:12:39;;;;;;;12.15;6.53;;;;;;;-2.23;100.00;97021.66;5026707;28;20048;-57
2023/04/20 04:15:06;;;;;;;12.85;6.35;;;;;;;-2.10;100.00;97015.75;5023629;28;20045;-55
2023/04/20 04:17:39;;;;;;;10.07;6.85;;;;;;;-1.87;100.00;97020.19;5018061;28;20107;-58
2023/04/20 04:20:10;;;;;;;8.98;5.38;;;;;;;-1.97;100.00;97022.25;5026539;28;21188;-56
2023/04/20 04:22:36;;;;;;;9.00;5.17;;;;;;;-1.98;100.00;97015.31;5020108;28;20705;-58
2023/04/20 04:25:22;;;;;;;10.73;5.78;;;;;;;-1.90;100.00;97017.91;5023678;28;20814;-55
2023/04/20 04:27:49;;;;;;;8.98;5.60;;;;;;;-1.89;100.00;97010.75;5027198;28;20099;-56
2023/04/20 04:30:16;;;;;;;11.05;5.50;;;;;;;-1.94;100.00;97006.00;5032595;28;20044;-58
2023/04/20 04:32:43;;;;;;;10.65;6.72;;;;;;;-1.79;100.00;97007.81;5029974;28;20748;-56
2023/04/20 04:35:10;;;;;;;11.88;5.97;;;;;;;-1.97;100.00;97011.66;5027292;28;20551;-57
2023/04/20 04:37:37;;;;;;;9.65;5.85;;;;;;;-2.13;100.00;97010.78;5027192;28;20049;-58
2023/04/20 04:40:08;;;;;;;8.85;5.57;;;;;;;-2.07;100.00;97008.44;5029047;28;20079;-57
2023/04/20 04:42:35;;;;;;;11.52;6.00;;;;;;;-2.07;100.00;97011.09;5024622;28;20579;-59
2023/04/20 04:45:03;;;;;;;11.65;6.68;;;;;;;-2.02;100.00;97009.56;5028918;28;20148;-59
2023/04/20 04:47:34;;;;;;;8.90;6.72;;;;;;;-2.04;100.00;97003.59;5023042;28;20045;-58
2023/04/20 04:50:04;;;;;;;12.35;7.07;;;;;;;-2.11;100.00;97010.63;5031776;28;20048;-57
2023/04/20 04:52:32;;;;;;;9.63;6.30;;;;;;;-2.09;100.00;97004.13;5025193;28;20072;-58
2023/04/20 04:54:58;;;;;;;14.60;6.15;;;;;;;-2.10;100.00;97002.47;5033176;28;20291;-58
2023/04/20 04:57:25;;;;;;;10.60;5.93;;;;;;;-2.00;100.00;97001.38;5028610;28;20053;-57
2023/04/20 04:59:52;;;;;;;14.13;7.40;;;;;;;-1.98;100.00;96997.53;5028893;28;20075;-58
2023/04/20 05:02:18;;;;;;;11.07;7.72;;;;;;;-2.02;100.00;97000.75;5028210;28;20531;-55
2023/04/20 05:04:45;;;;;;;12.00;7.25;;;;;;;-1.92;100.00;97000.50;5026675;28;20045;-56
2023/04/20 05:07:16;;;;;;;14.35;8.27;;;;;;;-1.86;100.00;96999.75;5027448;28;20056;-58
2023/04/20 05:09:42;;;;;;;10.48;7.07;;;;;;;-1.83;100.00;97010.84;5030207;28;20068;-55
2023/04/20 05:12:09;;;;;;;16.75;9.77;;;;;;;-1.66;100.00;97013.31;5029421;28;20036;-55
2023/04/20 05:14:35;;;;;;;14.68;8.50;;;;;;;-1.59;100.00;97010.75;5025587;28;20053;-59
2023/04/20 05:17:03;;;;;;;10.40;6.20;;;;;;;-1.65;100.00;97017.66;5028849;28;20124;-56
2023/04/20 05:19:30;;;;;;;10.68;7.05;;;;;;;-1.58;100.00;97020.41;5026381;28;20061;-57
2023/04/20 05:21:56;;;;;;;17.20;8.00;;;;;;;-1.44;100.00;97013.41;5029971;28;20559;-58
2023/04/20 05:24:23;;;;;;;14.80;8.98;;;;;;;-1.27;100.00;97016.72;5026289;28;20046;-57
2023/04/20 05:26:49;;;;;;;15.02;8.52;;;;;;;-1.27;100.00;97014.06;5026961;28;20053;-56
2023/04/20 05:29:16;;;;;;;14.38;8.40;;;;;;;-1.15;100.00;97008.28;5026449;28;20110;-59
2023/04/20 05:31:44;;;;;;;13.20;7.07;;;;;;;-1.07;100.00;97005.50;5027912;28;20053;-58
2023/04/20 05:34:10;;;;;;;15.00;8.27;;;;;;;-1.05;100.00;97012.28;5024731;28;20528;-57
2023/04/20 05:36:38;;;;;;;10.60;7.22;;;;;;;-1.00;100.00;97008.25;5022403;28;20512;-59
2023/04/20 05:39:04;;;;;;;11.13;6.93;;;;;;;-0.87;100.00;97004.91;5028441;28;20064;-57
2023/04/20 05:41:31;;;;;;;13.13;7.38;;;;;;;-0.70;100.00;97013.47;5029357;28;20416;-59
2023/04/20 05:43:57;;;;;;;9.50;6.93;;;;;;;-0.64;100.00;97015.38;5025799;28;20041;-59
2023/04/20 05:46:24;;;;;;;11.65;6.75;;;;;;;-0.58;100.00;97013.78;5029053;28;20122;-57
2023/04/20 05:48:50;;;;;;;11.27;7.15;;;;;;;-0.48;100.00;97008.97;5034664;28;20041;-58
2023/04/20 05:51:17;;;;;;;16.35;8.07;;;;;;;-0.35;100.00;97007.44;5025624;28;20068;-59
2023/04/20 05:53:43;;;;;;;11.23;7.57;;;;;;;-0.15;100.00;97005.78;5028438;28;20045;-55
2023/04/20 05:56:10;;;;;;;12.15;7.13;;;;;;;-0.09;100.00;97001.53;5026900;28;20536;-58
2023/04/20 05:58:37;;;;;;;15.40;8.60;;;;;;;0.05;100.00;97009.63;5032278;28;20100;-58
2023/04/20 06:01:04;;;;;;;9.93;7.13;;;;;;;0.19;100.00;97010.53;5026429;28;20123;-57
2023/04/20 06:03:30;;;;;;;12.98;7.70;;;;;;;0.55;100.00;97006.84;5028634;28;20123;-56
2023/04/20 06:05:57;;;;;;;13.65;7.85;;;;;;;0.72;100.00;97006.53;5028090;28;20053;-58
2023/04/20 06:08:23;;;;;;;12.70;7.53;;;;;;;0.95;100.00;97000.91;5029994;28;20560;-59
2023/04/20 06:10:57;;;;;;;11.95;7.07;;;;;;;1.15;100.00;96998.28;5024894;28;20045;-57
2023/04/20 06:13:23;;;;;;;10.82;6.85;;;;;;;1.41;100.00;97006.56;5027930;28;20668;-59
2023/04/20 06:15:51;;;;;;;9.80;6.90;;;;;;;1.59;100.00;97006.00;5025739;28;20049;-55
2023/04/20 06:18:18;;;;;;;10.15;6.30;;;;;;;1.77;100.00;96999.22;5023399;28;20112;-57
2023/04/20 06:20:45;;;;;;;15.70;14.10;;;;;;;1.90;100.00;96996.56;5019868;28;20049;-57
2023/04/20 06:23:11;;;;;;;11.05;7.53;;;;;;;2.05;99.62;96990.19;5018948;28;20038;-58
2023/04/20 06:25:38;;;;;;;10.07;6.35;;;;;;;2.15;97.36;96997.78;5027615;28;20041;-58
2023/04/20 06:28:05;;;;;;;10.68;6.38;;;;;;;2.25;97.94;96984.00;5026650;28;20568;-58
2023/04/20 06:30:33;;;;;;;12.20;6.95;;;;;;;2.35;97.11;96989.72;5026863;28;20049;-58
2023/04/20 06:33:01;;;;;;;8.30;6.00;;;;;;;2.49;95.85;96987.03;5019570;28;20590;-59
2023/04/20 06:35:28;;;;;;;10.18;5.90;;;;;;;2.53;95.60;96990.91;5020054;28;20045;-61
2023/04/20 06:37:56;;;;;;;13.70;5.78;;;;;;;2.53;94.09;96985.56;5028739;28;20057;-61
2023/04/20 06:40:25;;;;;;;14.63;7.05;;;;;;;2.59;94.77;96984.75;5029589;28;20644;-61
2023/04/20 06:42:52;;;;;;;10.73;6.28;;;;;;;2.62;94.16;96987.00;5027737;28;20060;-60
2023/04/20 06:45:19;;;;;;;11.98;6.03;;;;;;;2.67;95.41;96975.66;5027432;28;20037;-60
2023/04/20 06:47:45;;;;;;;9.48;5.38;;;;;;;2.75;95.12;96985.31;5024399;28;20543;-61
2023/04/20 06:50:12;;;;;;;9.90;5.95;;;;;;;2.89;94.89;96978.88;5018574;28;20045;-60
2023/04/20 06:52:39;;;;;;;12.13;5.57;;;;;;;2.92;93.35;96983.00;5019721;28;20052;-61
2023/04/20 06:55:07;;;;;;;13.70;6.78;;;;;;;3.02;93.47;96980.66;5025002;28;20045;-62
2023/04/20 06:57:33;;;;;;;8.23;6.05;;;;;;;3.11;93.55;96983.94;5028432;28;20041;-61
2023/04/20 07:00:00;;;;;;;10.93;5.88;;;;;;;3.17;92.75;96979.59;5029582;28;20556;-60
2023/04/20 07:02:26;;;;;;;11.27;6.32;;;;;;;3.38;92.67;96983.78;5028488;28;20077;-62
2023/04/20 07:04:59;;;;;;;9.32;6.28;;;;;;;3.44;91.85;96987.44;5021439;28;20045;-62
2023/04/20 07:07:26;;;;;;;9.73;6.43;;;;;;;3.40;91.97;96979.03;5029365;28;20065;-61
2023/04/20 07:09:53;;;;;;;11.35;6.57;;;;;;;3.46;91.38;96985.41;5022617;28;20107;-62
2023/04/20 07:12:19;;;;;;;11.15;6.05;;;;;;;3.60;91.83;96988.78;5017409;28;20046;-61
2023/04/20 07:14:46;;;;;;;11.05;6.45;;;;;;;3.75;91.72;96977.75;5027360;28;20099;-61
2023/04/20 07:17:12;;;;;;;9.40;6.13;;;;;;;3.85;89.08;96972.75;5019270;28;20091;-62
2023/04/20 07:19:39;;;;;;;16.17;7.05;;;;;;;3.98;89.29;96969.13;5018431;28;20107;-62
2023/04/20 07:22:05;;;;;;;23.27;12.63;;;;;;;3.99;88.82;96968.13;5024787;28;20679;-62
2023/04/20 07:24:31;;;;;;;12.68;8.57;;;;;;;4.10;89.17;96963.06;5024178;28;20084;-62
2023/04/20 07:26:58;;;;;;;11.93;7.18;;;;;;;4.10;88.88;96955.84;5028873;28;20099;-62
2023/04/20 07:29:24;;;;;;;11.63;6.30;;;;;;;4.16;89.04;96952.28;5030546;28;20103;-61
2023/04/20 07:31:51;;;;;;;10.18;5.75;;;;;;;4.24;88.93;96953.84;5025773;28;20079;-62
2023/04/20 07:34:18;;;;;;;9.48;5.88;;;;;;;4.37;88.29;96955.59;5039204;28;20132;-62
2023/04/20 07:36:45;;;;;;;11.40;6.60;;;;;;;4.35;85.98;96957.66;5032715;28;20054;-62
2023/04/20 07:39:11;;;;;;;10.80;6.10;;;;;;;4.42;86.69;96957.56;5031499;28;20129;-62
2023/04/20 07:41:38;;;;;;;11.57;6.18;;;;;;;4.31;88.40;96963.69;5026440;28;20462;-61
2023/04/20 07:44:04;;;;;;;11.45;6.95;;;;;;;4.42;88.65;96961.09;5027713;28;20460;-62
2023/04/20 07:46:31;;;;;;;10.93;6.55;;;;;;;4.36;88.43;96962.00;5031298;28;20083;-62
2023/04/20 07:48:57;;;;;;;10.13;6.38;;;;;;;4.49;88.91;96954.84;5028057;28;20516;-62
2023/04/20 07:51:24;;;;;;;9.23;6.32;;;;;;;4.68;88.76;96951.13;5023824;28;20053;-61
2023/04/20 07:53:50;;;;;;;10.98;6.95;;;;;;;4.81;87.50;96950.16;5027757;28;20069;-61
2023/04/20 07:56:17;;;;;;;9.90;6.28;;;;;;;4.89;87.47;96951.69;5017388;28;20671;-61
2023/04/20 07:58:43;;;;;;;10.75;6.45;;;;;;;4.93;87.31;96952.88;5030140;28;20057;-62
2023/04/20 08:01:10;;;;;;;13.82;6.78;;;;;;;5.21;88.30;96961.41;5032150;28;20199;-62
2023/04/20 08:03:36;;;;;;;12.07;7.07;;;;;;;5.21;85.65;96950.66;5023915;28;20716;-61
2023/04/20 08:06:03;;;;;;;11.68;7.45;;;;;;;5.21;86.28;96951.47;5031296;28;20159;-61
2023/04/20 08:08:30;;;;;;;10.90;7.07;;;;;;;5.26;85.45;96956.16;5024108;28;20695;-62
2023/04/20 08:11:00;;;;;;;11.52;6.93;;;;;;;5.33;85.17;96954.22;5028068;28;20044;-62
2023/04/20 08:13:27;;;;;;;10.73;7.03;;;;;;;5.46;85.69;96953.19;5026964;28;20631;-62
2023/04/20 08:15:53;;;;;;;13.80;7.05;;;;;;;5.60;84.31;96944.94;5030902;28;20049;-62
2023/04/20 08:18:20;;;;;;;12.00;8.25;;;;;;;5.60;83.85;96942.25;5028335;28;20079;-61
2023/04/20 08:20:47;;;;;;;12.05;6.60;;;;;;;5.71;83.70;96949.50;5025938;28;20081;-62
2023/04/20 08:23:13;;;;;;;11.63;7.30;;;;;;;5.66;82.10;96945.88;5027322;28;20124;-61
2023/04/20 08:25:40;;;;;;;10.60;6.90;;;;;;;5.67;81.23;96942.97;5029876;28;20052;-61
2023/04/20 08:28:06;;;;;;;10.85;6.32;;;;;;;5.71;81.68;96944.13;5031058;28;20077;-61
2023/04/20 08:30:40;;;;;;;11.00;6.72;;;;;;;5.89;81.16;96941.59;5028555;28;20102;-62
2023/04/20 08:33:07;;;;;;;12.85;7.15;;;;;;;5.86;81.10;96940.19;5030866;28;20049;-61
2023/04/20 08:35:33;;;;;;;11.50;6.93;;;;;;;5.97;79.39;96944.75;5025826;28;20072;-62
2023/04/20 08:38:00;;;;;;;10.27;7.05;;;;;;;6.32;79.40;96942.34;5033140;28;20049;-63
2023/04/20 08:40:28;;;;;;;12.23;7.28;;;;;;;6.52;78.62;96941.16;5029216;28;20046;-62
2023/04/20 08:42:56;;;;;;;13.00;6.97;;;;;;;6.29;79.07;96943.63;5028470;28;20037;-63
2023/04/20 08:45:23;;;;;;;12.07;7.35;;;;;;;6.12;79.10;96943.53;5032882;28;20049;-62
2023/04/20 08:47:50;;;;;;;10.70;6.80;;;;;;;6.20;78.52;96943.16;5027342;28;20053;-63
2023/04/20 08:50:18;;;;;;;10.32;7.03;;;;;;;6.30;79.92;96947.13;5032530;28;20041;-62
2023/04/20 08:52:45;;;;;;;11.60;6.55;;;;;;;6.58;78.30;96941.03;5029712;28;20483;-63
2023/04/20 08:55:16;;;;;;;10.27;7.32;;;;;;;6.24;78.91;96938.13;5028796;28;20047;-62
2023/04/20 08:57:43;;;;;;;12.52;7.50;;;;;;;6.32;79.38;96948.53;5031563;28;20164;-63
2023/04/20 09:00:10;;;;;;;10.05;6.95;;;;;;;6.61;78.74;96945.94;5025580;28;20049;-63
2023/04/20 09:02:50;;;;;;;11.52;7.07;;;;;;;6.48;78.32;96951.53;5028096;28;20034;-62
2023/04/20 09:05:26;;;;;;;13.18;7.88;;;;;;;6.17;79.00;96951.69;5025308;28;20509;-62
2023/04/20 09:07:58;;;;;;;13.00;7.47;;;;;;;6.18;80.48;96949.81;5029140;28;20041;-63
2023/04/20 09:10:26;;;;;;;11.10;7.65;;;;;;;6.20;81.71;96945.03;5027568;28;20176;-62
2023/04/20 09:12:52;;;;;;;12.10;7.22;;;;;;;6.38;81.81;96950.28;5025392;28;20041;-62
2023/04/20 09:15:30;;;;;;;9.63;6.75;;;;;;;6.36;83.51;96946.19;5029994;28;20045;-62
2023/04/20 09:17:56;;;;;;;13.65;8.23;;;;;;;5.98;83.31;96943.69;5026525;28;20048;-62
2023/04/20 09:20:31;;;;;;;13.60;7.57;;;;;;;5.91;84.49;96936.81;5028821;28;20095;-62
2023/04/20 09:23:09;;;;;;;10.18;7.15;;;;;;;5.76;85.07;96942.63;5028212;28;20042;-62
2023/04/20 09:25:36;;;;;;;11.63;7.38;;;;;;;5.64;86.37;96942.63;5023928;28;20042;-63
2023/04/20 09:28:03;;;;;;;11.82;7.78;;;;;;;5.70;86.02;96936.31;5028390;28;20109;-62
2023/04/20 09:30:43;;;;;;;10.20;7.25;;;;;;;5.55;85.75;96948.31;5028870;28;20132;-62
2023/04/20 09:33:11;;;;;;;10.85;6.53;;;;;;;5.48;86.81;96942.22;5029096;28;20124;-62
2023/04/20 09:35:39;;;;;;;10.88;7.20;;;;;;;5.53;86.97;96947.72;5028393;28;20056;-63
2023/04/20 09:38:10;;;;;;;12.65;7.65;;;;;;;5.63;87.30;96941.00;5029808;28;20501;-63
2023/04/20 09:40:36;;;;;;;12.68;7.22;;;;;;;5.73;86.48;96942.06;5028890;28;20053;-63
2023/04/20 09:43:08;;;;;;;9.82;7.07;;;;;;;5.71;86.67;96933.41;5025641;28;20041;-62
2023/04/20 09:45:37;;;;;;;11.35;7.53;;;;;;;5.78;86.63;96933.28;5028313;28;20060;-63
2023/04/20 09:48:06;;;;;;;11.85;6.95;;;;;;;5.80;85.07;96928.50;5028845;28;20129;-62
2023/04/20 09:50:36;;;;;;;12.98;7.20;;;;;;;5.72;86.57;96935.03;5026104;28;20041;-62
2023/04/20 09:53:16;;;;;;;11.15;7.22;;;;;;;5.72;88.07;96926.97;5028933;28;20529;-63
2023/04/20 09:55:50;;;;;;;10.20;6.97;;;;;;;5.71;88.82;96932.56;5023478;28;20439;-63
2023/04/20 09:58:19;;;;;;;12.75;7.93;;;;;;;5.80;90.83;96939.25;5021247;28;20038;-63
2023/04/20 10:00:46;;;;;;;13.13;7.38;;;;;;;5.83;89.40;96928.03;5023985;28;20099;-63
2023/04/20 10:03:17;;;;;;;11.25;7.55;;;;;;;5.92;90.54;96933.06;5024255;28;20076;-63
2023/04/20 10:05:44;;;;;;;10.70;7.70;;;;;;;6.02;92.45;96922.56;5026288;28;20051;-62
2023/04/20 10:08:11;;;;;;;11.93;7.32;;;;;;;6.27;90.81;96928.78;5025919;28;20045;-63
2023/04/20 10:10:46;;;;;;;12.00;6.32;;;;;;;6.22;90.57;96924.94;5026820;28;20243;-62
2023/04/20 10:13:13;;;;;;;15.00;7.43;;;;;;;6.23;91.50;96934.63;5023321;28;20065;-63
2023/04/20 10:15:41;;;;;;;15.63;7.15;;;;;;;6.23;90.25;96931.94;5026737;28;20098;-62
2023/04/20 10:18:24;;;;;;;9.88;7.15;;;;;;;6.37;89.33;96929.81;5030932;28;20045;-63
2023/04/20 10:21:02;;;;;;;10.82;7.07;;;;;;;6.26;88.51;96927.16;5026151;28;20154;-62
2023/04/20 10:23:29;;;;;;;9.85;6.75;;;;;;;6.12;87.22;96919.34;5028679;28;20041;-62
2023/04/20 10:25:58;;;;;;;11.00;6.88;;;;;;;5.97;89.53;96914.41;5021098;28;20528;-63
2023/04/20 10:28:38;;;;;;;10.85;7.07;;;;;;;5.89;90.51;96912.06;5023351;28;20584;-63
2023/04/20 10:31:06;;;;;;;11.25;6.90;;;;;;;5.86;90.35;96908.75;5021508;28;20045;-63
2023/04/20 10:33:33;;;;;;;11.82;7.18;;;;;;;6.00;91.67;96905.84;5021428;28;20041;-62
2023/04/20 10:35:59;;;;;;;9.52;6.80;;;;;;;5.97;91.25;96900.97;5030031;28;20416;-62
2023/04/20 10:38:32;;;;;;;12.48;7.65;;;;;;;6.07;92.23;96897.69;5024789;28;20049;-62
2023/04/20 10:41:08;;;;;;;13.43;7.90;;;;;;;6.13;90.77;96902.16;5025082;28;20138;-62
2023/04/20 10:43:37;;;;;;;11.45;7.68;;;;;;;5.85;88.51;96895.56;5029519;28;20045;-62
2023/04/20 10:46:13;;;;;;;13.02;6.82;;;;;;;5.83;91.84;96886.94;5016251;28;20090;-63
2023/04/20 10:48:53;;;;;;;12.15;7.35;;;;;;;5.96;92.86;96881.31;5028037;28;20564;-61
2023/04/20 10:51:20;;;;;;;10.13;6.95;;;;;;;5.79;91.22;96873.13;5023261;28;20047;-61
2023/04/20 10:54:06;;;;;;;12.48;8.07;;;;;;;5.94;91.96;96874.53;5022161;28;20065;-60
2023/04/20 10:56:41;;;;;;;12.65;7.70;;;;;;;5.97;90.86;96879.47;5025873;28;20505;-61
2023/04/20 10:59:13;;;;;;;12.65;7.60;;;;;;;6.00;92.52;96876.28;5027989;28;20048;-61
2023/04/20 11:01:40;;;;;;;10.23;6.72;;;;;;;6.16;93.51;96871.28;5028916;28;20042;-61
2023/04/20 11:04:09;;;;;;;13.25;7.13;;;;;;;6.31;92.00;96873.47;5033057;28;20045;-62
2023/04/20 11:06:40;;;;;;;12.40;8.13;;;;;;;6.21;90.33;96874.06;5031616;28;20464;-61
2023/04/20 11:09:25;;;;;;;11.40;7.60;;;;;;;6.33;91.98;96866.81;5028491;28;20049;-61
2023/04/20 11:12:02;;;;;;;11.45;7.47;;;;;;;6.19;90.16;96862.75;5033046;28;20050;-61
2023/04/20 11:14:31;;;;;;;13.52;7.65;;;;;;;6.34;91.33;96862.25;5027057;28;20045;-61
2023/04/20 11:16:58;;;;;;;13.65;8.65;;;;;;;6.53;92.53;96857.53;5031511;28;20083;-62
2023/04/20 11:19:32;;;;;;;10.25;7.32;;;;;;;6.37;90.72;96861.75;5033295;28;20049;-63
2023/04/20 11:22:02;;;;;;;14.30;7.60;;;;;;;6.56;90.55;96853.56;5032701;28;20072;-61
2023/04/20 11:24:32;;;;;;;12.10;7.05;;;;;;;6.22;89.31;96857.72;5023999;28;20077;-60
2023/04/20 11:27:01;;;;;;;15.63;7.63;;;;;;;6.22;93.65;96863.09;5025001;28;20045;-60
2023/04/20 11:29:32;;;;;;;10.18;7.03;;;;;;;6.22;92.94;96867.63;5027539;28;20803;-59
2023/04/20 11:32:00;;;;;;;11.80;7.10;;;;;;;6.14;91.99;96870.69;5027939;28;20045;-59